Time;durP1;ratioP1;P1;durP2;ratioP2;P2;SDS_P1;SDS_P2;PMS_P1;PMS_P2;Temp;Humidity;BMP_temperature;BMP_pressure;BME280_temperature;BME280_humidity;BME280_pressure;Samples;Min_cycle;Max_cycle;Signal;HPM_P1;HPM_P2
2022/03/11 00:01:59;;;;;;;35.40;13.70;;;;;;;-4.94;47.46;102252.91;130268;1274;106955;-84
2022/03/11 00:05:06;;;;;;;35.80;13.60;;;;;;;-4.94;47.46;102254.29;130034;1276;108608;-87
2022/03/11 00:08:12;;;;;;;39.70;14.20;;;;;;;-4.94;47.23;102256.20;130287;1274;108912;-86
2022/03/11 00:11:17;;;;;;;36.30;14.40;;;;;;;-4.98;47.05;102260.54;130145;1275;108837;-86
2022/03/11 00:14:24;;;;;;;35.40;13.50;;;;;;;-5.03;47.00;102258.65;129974;1274;106877;-85
2022/03/11 00:17:29;;;;;;;35.90;12.60;;;;;;;-5.10;47.14;102257.46;130640;1274;108864;-83
2022/03/11 00:20:35;;;;;;;33.30;13.60;;;;;;;-5.13;46.97;102257.30;129917;1275;108826;-83
2022/03/11 00:23:43;;;;;;;36.10;13.60;;;;;;;-5.16;47.24;102252.27;129888;1274;109107;-82
2022/03/11 00:26:49;;;;;;;36.20;15.30;;;;;;;-5.17;47.39;102250.36;129892;1276;107864;-83
2022/03/11 00:29:55;;;;;;;33.30;13.50;;;;;;;-5.19;47.33;102251.41;130446;1274;108813;-83
2022/03/11 00:33:01;;;;;;;36.90;15.00;;;;;;;-5.23;47.54;102251.59;130383;1274;109040;-83
2022/03/11 00:36:07;;;;;;;38.40;13.80;;;;;;;-5.24;47.49;102248.81;129819;1275;107886;-82
2022/03/11 00:39:13;;;;;;;33.80;13.60;;;;;;;-5.29;47.52;102243.10;129831;1274;107792;-84
2022/03/11 00:42:18;;;;;;;34.40;13.90;;;;;;;-5.34;47.69;102245.88;129783;1276;107800;-82
2022/03/11 00:45:24;;;;;;;33.60;12.70;;;;;;;-5.37;48.01;102247.63;129897;1274;108989;-82
2022/03/11 00:48:29;;;;;;;36.20;13.40;;;;;;;-5.38;47.73;102250.39;130313;1274;108892;-85
2022/03/11 00:51:35;;;;;;;35.50;13.40;;;;;;;-5.38;47.75;102250.23;130635;1275;108929;-82
2022/03/11 00:54:40;;;;;;;34.40;12.80;;;;;;;-5.44;47.63;102251.98;129877;1275;108872;-84
2022/03/11 00:57:46;;;;;;;30.00;12.60;;;;;;;-5.56;47.33;102247.48;130115;1274;107758;-84
2022/03/11 01:00:51;;;;;;;31.50;12.60;;;;;;;-5.62;47.72;102250.09;129967;1274;109457;-85
2022/03/11 01:03:57;;;;;;;32.90;13.00;;;;;;;-5.69;47.54;102253.90;130009;1275;108868;-83
2022/03/11 01:07:02;;;;;;;45.70;15.60;;;;;;;-5.69;47.80;102252.00;130049;1274;107802;-84
2022/03/11 01:10:09;;;;;;;53.70;17.90;;;;;;;-5.73;47.70;102250.41;130085;1275;108888;-85
2022/03/11 01:13:15;;;;;;;55.00;18.30;;;;;;;-5.73;47.87;102252.50;130297;1274;108986;-85
2022/03/11 01:16:21;;;;;;;47.60;16.20;;;;;;;-5.76;47.96;102253.89;130280;1274;107477;-84
2022/03/11 01:19:26;;;;;;;90.20;24.60;;;;;;;-5.77;47.92;102254.94;130642;1274;108951;-87
2022/03/11 01:22:32;;;;;;;76.10;21.60;;;;;;;-5.88;48.00;102257.70;130357;1274;108764;-86
2022/03/11 01:25:38;;;;;;;66.30;21.10;;;;;;;-5.95;47.99;102257.54;130318;1275;107707;-87
2022/03/11 01:28:43;;;;;;;73.60;22.80;;;;;;;-6.15;48.13;102262.02;130075;1275;108890;-83
2022/03/11 01:31:49;;;;;;;74.70;20.70;;;;;;;-6.20;48.07;102254.92;130182;1274;108729;-84
2022/03/11 01:34:54;;;;;;;60.10;19.90;;;;;;;-6.13;48.48;102255.28;129939;1274;108931;-84
2022/03/11 01:38:00;;;;;;;54.10;16.80;;;;;;;-6.05;48.63;102256.52;129851;1275;108735;-85
2022/03/11 01:41:06;;;;;;;63.40;19.50;;;;;;;-6.00;48.99;102259.45;129811;1274;108769;-86
2022/03/11 01:44:12;;;;;;;68.30;20.00;;;;;;;-5.99;48.55;102261.36;129885;1275;108717;-81
2022/03/11 01:47:17;;;;;;;66.50;20.90;;;;;;;-5.98;48.73;102262.76;129844;1275;109036;-84
2022/03/11 01:50:23;;;;;;;71.10;21.40;;;;;;;-5.97;48.47;102266.73;129968;1274;109019;-82
2022/03/11 01:53:28;;;;;;;56.60;19.60;;;;;;;-6.00;48.81;102261.88;129896;1274;108549;-83
2022/03/11 01:56:36;;;;;;;97.70;27.30;;;;;;;-6.04;49.20;102263.78;129891;1274;109150;-82
2022/03/11 01:59:41;;;;;;;116.90;33.30;;;;;;;-6.08;48.79;102264.64;129862;1275;109063;-84
2022/03/11 02:02:47;;;;;;;112.40;32.40;;;;;;;-6.15;48.27;102263.42;129866;1274;107774;-81
2022/03/11 02:05:52;;;;;;;114.20;31.00;;;;;;;-6.20;48.81;102269.13;129725;1275;108857;-80
2022/03/11 02:08:59;;;;;;;100.10;29.80;;;;;;;-6.28;48.64;102273.45;129553;1274;322999;-84
2022/03/11 02:12:05;;;;;;;96.00;30.20;;;;;;;-6.31;48.57;102279.67;130649;1276;108874;-79
2022/03/11 02:15:11;;;;;;;101.00;30.00;;;;;;;-6.29;48.66;102283.31;130209;1276;109876;-80
2022/03/11 02:18:17;;;;;;;87.90;28.40;;;;;;;-6.28;48.96;102283.31;130833;1276;108972;-80
2022/03/11 02:21:25;;;;;;;84.00;26.00;;;;;;;-6.27;48.78;102288.16;131535;1276;108841;-81
2022/03/11 02:24:31;;;;;;;86.00;26.60;;;;;;;-6.25;48.87;102287.14;130539;1276;108950;-81
2022/03/11 02:27:42;;;;;;;69.80;23.30;;;;;;;-6.25;48.66;102292.67;130085;1277;108957;-82
2022/03/11 02:30:48;;;;;;;73.70;23.90;;;;;;;-6.26;48.85;102293.36;129681;1277;109172;-81
2022/03/11 02:33:54;;;;;;;60.30;20.00;;;;;;;-6.28;48.50;102295.25;129568;1276;108871;-81
2022/03/11 02:36:59;;;;;;;60.60;20.30;;;;;;;-6.42;48.91;102293.48;129587;1276;109000;-82
2022/03/11 02:40:06;;;;;;;59.80;20.40;;;;;;;-6.43;49.05;102295.20;129632;1278;108775;-79
2022/03/11 02:43:12;;;;;;;54.30;19.40;;;;;;;-6.43;49.02;102296.41;129677;1277;107529;-81
2022/03/11 02:46:17;;;;;;;54.30;19.40;;;;;;;-6.41;49.30;102294.19;130115;1277;109059;-81
2022/03/11 02:49:23;;;;;;;49.00;17.80;;;;;;;-6.43;48.98;102296.94;129710;1278;107854;-84
2022/03/11 02:52:29;;;;;;;44.30;16.20;;;;;;;-6.51;48.93;102291.55;129625;1277;109173;-85
2022/03/11 02:55:35;;;;;;;41.10;15.60;;;;;;;-6.60;49.19;102290.64;129587;1275;108768;-84
2022/03/11 02:58:42;;;;;;;36.90;13.50;;;;;;;-6.65;49.23;102290.11;129633;1277;108709;-81
2022/03/11 03:01:47;;;;;;;37.60;13.80;;;;;;;-6.59;49.21;102292.20;129734;1278;108735;-83
2022/03/11 03:04:53;;;;;;;33.90;14.10;;;;;;;-6.57;49.19;102294.98;129740;1277;108865;-83
2022/03/11 03:07:58;;;;;;;40.40;14.90;;;;;;;-6.46;48.98;102293.64;129775;1277;108718;-84
2022/03/11 03:11:04;;;;;;;34.80;14.10;;;;;;;-6.30;49.55;102286.59;129895;1277;109035;-83
2022/03/11 03:14:10;;;;;;;35.10;13.90;;;;;;;-6.21;49.37;102287.83;129751;1277;108847;-84
2022/03/11 03:17:15;;;;;;;39.70;15.50;;;;;;;-6.22;49.17;102295.45;129787;1277;107733;-82
2022/03/11 03:20:21;;;;;;;40.30;15.50;;;;;;;-6.21;49.11;102301.17;130056;1277;108681;-85
2022/03/11 03:23:26;;;;;;;42.70;15.20;;;;;;;-6.20;49.15;102294.76;129888;1277;109102;-85
2022/03/11 03:26:32;;;;;;;44.80;16.40;;;;;;;-6.24;48.93;102291.28;129584;1277;108756;-83
2022/03/11 03:29:37;;;;;;;35.90;14.40;;;;;;;-6.29;49.26;102286.25;129696;1277;107723;-82
2022/03/11 03:32:43;;;;;;;38.80;13.90;;;;;;;-6.33;49.36;102287.27;129498;1276;109192;-81
2022/03/11 03:35:49;;;;;;;32.10;12.50;;;;;;;-6.40;49.04;102288.83;129526;1278;109104;-81
2022/03/11 03:38:58;;;;;;;32.80;12.70;;;;;;;-6.46;49.57;102290.71;129441;1275;108927;-81
2022/03/11 03:42:04;;;;;;;34.20;13.00;;;;;;;-6.49;49.01;102293.28;129462;1276;107616;-80
2022/03/11 03:45:11;;;;;;;30.60;11.90;;;;;;;-6.52;49.47;102295.88;129508;1275;108773;-82
2022/03/11 03:48:17;;;;;;;30.50;12.50;;;;;;;-6.61;49.21;102290.30;130094;1276;109629;-80
2022/03/11 03:51:22;;;;;;;28.60;11.20;;;;;;;-6.72;49.33;102289.73;129629;1277;108788;-77
2022/03/11 03:54:28;;;;;;;29.20;11.30;;;;;;;-6.83;49.51;102292.27;129485;1275;109225;-78
2022/03/11 03:57:34;;;;;;;26.30;10.50;;;;;;;-6.88;49.63;102295.71;129568;1277;108888;-79
2022/03/11 04:00:39;;;;;;;27.40;11.30;;;;;;;-6.91;49.80;102295.17;129897;1277;108941;-78
2022/03/11 04:03:45;;;;;;;26.10;10.30;;;;;;;-6.95;49.38;102290.31;129441;1277;107378;-78
2022/03/11 04:06:50;;;;;;;23.40;8.50;;;;;;;-6.96;49.74;102292.38;129523;1277;108721;-79
2022/03/11 04:09:56;;;;;;;20.50;8.50;;;;;;;-6.99;49.91;102291.32;129593;1276;106831;-77
2022/03/11 04:13:02;;;;;;;20.70;8.10;;;;;;;-7.02;49.94;102292.52;129631;1277;108890;-76
2022/03/11 04:16:08;;;;;;;21.60;8.40;;;;;;;-6.97;50.11;102292.20;129532;1277;107339;-79
2022/03/11 04:19:14;;;;;;;20.60;8.00;;;;;;;-6.94;49.82;102289.80;129512;1277;108710;-78
2022/03/11 04:22:20;;;;;;;23.40;9.30;;;;;;;-6.84;49.82;102291.75;129558;1275;108859;-79
2022/03/11 04:25:25;;;;;;;22.20;9.30;;;;;;;-6.79;49.79;102294.71;129712;1277;108880;-78
2022/03/11 04:28:34;;;;;;;23.10;8.70;;;;;;;-6.72;50.24;102297.34;129757;1276;108711;-74
2022/03/11 04:31:40;;;;;;;24.10;9.30;;;;;;;-6.71;49.68;102301.84;129687;1274;108813;-77
2022/03/11 04:34:46;;;;;;;27.90;9.70;;;;;;;-6.78;49.77;102301.99;129524;1276;108919;-79
2022/03/11 04:37:51;;;;;;;23.90;9.30;;;;;;;-6.81;49.88;102298.86;129498;1276;108847;-77
2022/03/11 04:40:57;;;;;;;29.80;10.80;;;;;;;-6.85;50.16;102297.98;129488;1275;108786;-77
2022/03/11 04:44:03;;;;;;;24.00;10.30;;;;;;;-6.87;50.26;102294.16;129497;1276;107454;-80
2022/03/11 04:47:08;;;;;;;27.80;10.60;;;;;;;-6.88;50.21;102293.63;129534;1277;107673;-80
2022/03/11 04:50:14;;;;;;;28.80;12.80;;;;;;;-6.90;50.31;102293.61;129653;1276;108772;-77
2022/03/11 04:53:19;;;;;;;30.20;10.80;;;;;;;-6.94;49.82;102289.45;129480;1276;108797;-77
2022/03/11 04:56:26;;;;;;;28.00;11.50;;;;;;;-7.00;50.41;102294.77;129545;1274;108702;-78
2022/03/11 04:59:31;;;;;;;29.10;11.70;;;;;;;-7.03;50.19;102294.93;129654;1276;108788;-77
2022/03/11 05:02:37;;;;;;;38.30;14.30;;;;;;;-7.04;50.33;102296.13;129691;1275;109664;-77
2022/03/11 05:05:42;;;;;;;39.30;14.90;;;;;;;-7.10;50.52;102294.20;129521;1276;107844;-77
2022/03/11 05:08:47;;;;;;;41.70;15.40;;;;;;;-7.13;50.65;102296.95;129505;1276;108763;-78
2022/03/11 05:11:53;;;;;;;36.80;13.60;;;;;;;-7.15;50.64;102299.35;129536;1276;109002;-79
2022/03/11 05:14:58;;;;;;;31.80;13.20;;;;;;;-7.15;50.38;102300.05;129743;1276;108863;-76
2022/03/11 05:18:04;;;;;;;38.30;13.50;;;;;;;-7.14;50.37;102303.52;129761;1276;107775;-75
2022/03/11 05:21:09;;;;;;;34.50;13.30;;;;;;;-7.07;50.72;102303.56;129784;1275;107927;-76
2022/03/11 05:24:15;;;;;;;38.30;13.90;;;;;;;-7.02;50.62;102301.51;129697;1276;108937;-75
2022/03/11 05:27:22;;;;;;;44.60;15.70;;;;;;;-6.93;50.28;102300.02;129632;1276;108980;-77
2022/03/11 05:30:28;;;;;;;47.70;18.20;;;;;;;-6.78;50.26;102300.60;129729;1276;108857;-77
2022/03/11 05:33:34;;;;;;;55.50;21.10;;;;;;;-6.66;50.38;102294.95;129569;1276;108982;-78
2022/03/11 05:36:39;;;;;;;57.70;21.50;;;;;;;-6.54;50.33;102292.75;129818;1276;108817;-73
2022/03/11 05:39:45;;;;;;;61.50;21.80;;;;;;;-6.49;50.50;102294.33;129588;1275;108903;-79
2022/03/11 05:42:51;;;;;;;61.30;22.70;;;;;;;-6.45;50.21;102294.52;129667;1276;109075;-78
2022/03/11 05:45:56;;;;;;;57.70;23.00;;;;;;;-6.42;50.42;102289.69;129841;1276;108952;-82
2022/03/11 05:49:02;;;;;;;58.10;23.10;;;;;;;-6.41;50.23;102291.75;129662;1276;108889;-80
2022/03/11 05:52:08;;;;;;;66.00;23.50;;;;;;;-6.39;50.44;102297.99;129588;1276;108923;-77
2022/03/11 05:55:14;;;;;;;50.30;21.30;;;;;;;-6.33;50.52;102302.17;129526;1276;108874;-76
2022/03/11 05:58:19;;;;;;;58.90;21.90;;;;;;;-6.29;50.70;102309.27;129689;1274;108753;-78
2022/03/11 06:01:25;;;;;;;56.60;22.10;;;;;;;-6.25;50.38;102307.05;129641;1274;108628;-78
2022/03/11 06:04:31;;;;;;;56.60;21.50;;;;;;;-6.21;50.86;102307.05;129892;1274;106807;-77
2022/03/11 06:07:36;;;;;;;55.90;21.60;;;;;;;-6.17;51.19;102308.45;129546;1275;109036;-80
2022/03/11 06:10:42;;;;;;;57.60;23.30;;;;;;;-6.11;51.05;102313.15;129517;1276;107731;-83
2022/03/11 06:13:48;;;;;;;59.10;22.60;;;;;;;-6.12;51.22;102317.48;129517;1276;108774;-78
2022/03/11 06:16:53;;;;;;;94.40;37.40;;;;;;;-6.06;51.48;102318.36;129603;1276;108872;-77
2022/03/11 06:19:58;;;;;;;82.10;32.30;;;;;;;-5.99;51.25;102316.47;129550;1276;108838;-72
2022/03/11 06:23:04;;;;;;;92.90;35.90;;;;;;;-5.93;51.14;102323.55;129803;1276;108813;-72
2022/03/11 06:26:09;;;;;;;87.80;33.50;;;;;;;-5.84;51.56;102321.48;129781;1274;108807;-71
2022/03/11 06:29:15;;;;;;;96.10;35.20;;;;;;;-5.71;51.61;102322.02;129617;1274;108655;-72
2022/03/11 06:32:21;;;;;;;87.50;33.60;;;;;;;-5.59;51.52;102321.86;129677;1274;107871;-70
2022/03/11 06:35:27;;;;;;;73.20;28.00;;;;;;;-5.44;51.60;102324.81;129686;1274;108379;-71
2022/03/11 06:38:32;;;;;;;58.10;21.40;;;;;;;-5.28;51.49;102323.08;129696;1274;108708;-71
2022/03/11 06:41:38;;;;;;;95.90;32.10;;;;;;;-5.10;51.65;102319.92;129635;1274;108259;-69
2022/03/11 06:44:43;;;;;;;69.60;23.50;;;;;;;-4.95;51.34;102317.12;129611;1274;108806;-71
2022/03/11 06:47:49;;;;;;;43.80;17.50;;;;;;;-4.80;51.52;102324.04;129680;1274;108892;-71
2022/03/11 06:50:54;;;;;;;48.40;19.30;;;;;;;-4.66;51.69;102323.65;129469;1276;108929;-71
2022/03/11 06:54:01;;;;;;;44.40;17.40;;;;;;;-4.53;51.36;102324.65;129655;1274;108873;-71
2022/03/11 06:57:06;;;;;;;33.90;14.00;;;;;;;-4.38;51.18;102324.23;129722;1274;108838;-72
2022/03/11 07:00:14;;;;;;;33.40;13.20;;;;;;;-4.23;51.03;102325.91;129765;1274;108636;-70
2022/03/11 07:03:20;;;;;;;27.70;11.00;;;;;;;-4.07;50.82;102324.27;129662;1274;108844;-72
2022/03/11 07:06:25;;;;;;;23.10;9.90;;;;;;;-3.95;50.87;102320.71;129694;1274;109028;-72
2022/03/11 07:09:30;;;;;;;22.50;10.40;;;;;;;-3.83;50.82;102312.11;129626;1274;109461;-71
2022/03/11 07:12:36;;;;;;;22.10;10.30;;;;;;;-3.71;50.74;102320.37;129639;1274;108745;-72
2022/03/11 07:15:43;;;;;;;21.40;10.00;;;;;;;-3.58;50.57;102317.33;129539;1274;107628;-70
2022/03/11 07:18:48;;;;;;;25.70;10.50;;;;;;;-3.45;50.40;102320.17;129660;1274;107702;-72
2022/03/11 07:21:54;;;;;;;22.70;9.80;;;;;;;-3.34;50.30;102318.17;129756;1274;108856;-73
2022/03/11 07:25:00;;;;;;;21.60;9.60;;;;;;;-3.22;50.29;102318.06;129752;1274;108836;-72
2022/03/11 07:28:05;;;;;;;21.30;9.70;;;;;;;-3.13;49.81;102314.67;129659;1274;108713;-71
2022/03/11 07:31:11;;;;;;;16.20;8.30;;;;;;;-3.02;49.91;102318.74;129749;1274;108895;-73
2022/03/11 07:34:17;;;;;;;23.40;10.10;;;;;;;-2.91;49.81;102316.89;129540;1274;109015;-71
2022/03/11 07:37:22;;;;;;;17.60;7.20;;;;;;;-2.79;49.50;102319.55;129639;1274;109338;-71
2022/03/11 07:40:27;;;;;;;15.20;7.50;;;;;;;-2.67;49.36;102317.86;129681;1274;108724;-71
2022/03/11 07:43:35;;;;;;;16.80;7.30;;;;;;;-2.55;49.26;102316.32;129594;1274;108669;-71
2022/03/11 07:46:40;;;;;;;18.50;7.70;;;;;;;-2.44;49.23;102318.81;129623;1274;108743;-70
2022/03/11 07:49:47;;;;;;;18.30;8.00;;;;;;;-2.33;48.95;102315.53;129614;1274;108897;-70
2022/03/11 07:52:52;;;;;;;14.00;6.90;;;;;;;-2.23;48.58;102317.31;129647;1274;108783;-70
2022/03/11 07:55:57;;;;;;;16.00;6.90;;;;;;;-2.14;48.53;102319.28;129619;1274;108708;-70
2022/03/11 07:59:05;;;;;;;15.00;7.30;;;;;;;-2.04;48.46;102319.66;129625;1274;108841;-71
2022/03/11 08:02:11;;;;;;;14.50;6.40;;;;;;;-1.95;48.27;102326.00;129671;1274;108523;-69
2022/03/11 08:05:17;;;;;;;15.60;6.80;;;;;;;-1.86;48.01;102329.18;129586;1274;108869;-73
2022/03/11 08:08:22;;;;;;;12.30;6.20;;;;;;;-1.77;48.13;102328.71;129645;1274;107375;-71
2022/03/11 08:11:27;;;;;;;11.00;5.50;;;;;;;-1.69;47.83;102324.91;129621;1274;108950;-70
2022/03/11 08:14:33;;;;;;;12.00;5.80;;;;;;;-1.63;47.63;102322.20;129638;1274;108871;-70
2022/03/11 08:17:39;;;;;;;10.40;5.30;;;;;;;-1.56;47.32;102318.79;129617;1274;108737;-70
2022/03/11 08:20:45;;;;;;;14.30;6.60;;;;;;;-1.47;47.53;102317.42;129628;1274;108620;-71
2022/03/11 08:23:50;;;;;;;14.70;6.50;;;;;;;-1.39;47.48;102317.81;129628;1274;108862;-70
2022/03/11 08:26:56;;;;;;;13.10;6.60;;;;;;;-1.32;47.32;102311.23;129653;1274;108885;-71
2022/03/11 08:30:01;;;;;;;13.40;5.80;;;;;;;-1.24;47.55;102314.93;129650;1274;109732;-71
2022/03/11 08:33:11;;;;;;;10.40;5.90;;;;;;;-1.17;47.21;102313.59;129386;1275;108989;-71
2022/03/11 08:36:17;;;;;;;11.70;5.90;;;;;;;-1.09;47.34;102314.14;129450;1275;106724;-72
2022/03/11 08:39:25;;;;;;;9.60;4.70;;;;;;;-1.03;46.77;102315.25;129658;1274;108688;-70
2022/03/11 08:42:30;;;;;;;11.20;5.30;;;;;;;-0.96;46.22;102320.71;129584;1274;108979;-71
2022/03/11 08:45:36;;;;;;;8.90;4.80;;;;;;;-0.90;46.24;102322.88;129525;1276;108823;-71
2022/03/11 08:48:43;;;;;;;9.40;4.70;;;;;;;-0.84;45.67;102322.60;129608;1274;108746;-70
2022/03/11 08:51:49;;;;;;;12.10;5.90;;;;;;;-0.80;46.41;102320.08;129653;1274;108748;-70
2022/03/11 08:54:55;;;;;;;13.20;6.30;;;;;;;-0.73;46.21;102323.45;129630;1274;108949;-70
2022/03/11 08:58:01;;;;;;;10.80;5.60;;;;;;;-0.66;46.14;102317.02;129642;1274;108786;-70
2022/03/11 09:01:06;;;;;;;12.90;7.00;;;;;;;-0.58;45.54;102312.48;129674;1274;108877;-70
2022/03/11 09:04:11;;;;;;;8.20;4.70;;;;;;;-0.51;45.65;102311.13;129459;1276;108917;-70
2022/03/11 09:07:17;;;;;;;9.80;5.50;;;;;;;-0.45;45.84;102307.48;129606;1274;106742;-70
2022/03/11 09:10:22;;;;;;;10.60;6.00;;;;;;;-0.37;45.51;102304.36;129653;1274;107721;-71
2022/03/11 09:13:28;;;;;;;10.40;5.20;;;;;;;-0.31;45.43;102302.66;129630;1274;107741;-72
2022/03/11 09:16:33;;;;;;;9.70;4.90;;;;;;;-0.23;45.38;102308.95;129649;1274;107129;-71
2022/03/11 09:19:42;;;;;;;10.90;5.60;;;;;;;-0.16;44.76;102307.77;129675;1274;108054;-71
2022/03/11 09:22:47;;;;;;;9.40;5.00;;;;;;;-0.10;44.68;102304.31;129430;1274;109011;-71
2022/03/11 09:25:54;;;;;;;10.90;6.40;;;;;;;-0.02;44.47;102303.95;129427;1276;108653;-71
2022/03/11 09:29:00;;;;;;;9.90;5.30;;;;;;;0.06;44.50;102302.54;129361;1276;108885;-70
2022/03/11 09:32:08;;;;;;;8.90;4.40;;;;;;;0.13;43.99;102302.05;129413;1276;108689;-71
2022/03/11 09:35:15;;;;;;;8.80;4.80;;;;;;;0.18;44.25;102298.77;129386;1276;109099;-71
2022/03/11 09:38:21;;;;;;;11.80;5.60;;;;;;;0.24;43.82;102300.02;129428;1276;108132;-72
2022/03/11 09:41:28;;;;;;;11.90;5.50;;;;;;;0.28;43.24;102301.17;129611;1274;108848;-71
2022/03/11 09:44:34;;;;;;;9.40;6.00;;;;;;;0.33;43.63;102298.59;129726;1274;110941;-72
2022/03/11 09:47:42;;;;;;;11.40;6.20;;;;;;;0.38;43.20;102292.33;129694;1274;108909;-72
2022/03/11 09:50:47;;;;;;;11.90;5.40;;;;;;;0.45;42.88;102289.36;129666;1274;108771;-71
2022/03/11 09:53:53;;;;;;;9.70;5.90;;;;;;;0.51;43.33;102292.38;129574;1274;108834;-71
2022/03/11 09:57:00;;;;;;;15.40;7.60;;;;;;;0.60;43.39;102294.42;129484;1274;108847;-71
2022/03/11 10:00:10;;;;;;;17.30;7.80;;;;;;;0.67;43.05;102291.63;129571;1274;108793;-70
2022/03/11 10:03:18;;;;;;;11.40;5.90;;;;;;;0.70;42.93;102281.55;129519;1274;108768;-71
2022/03/11 10:06:41;;;;;;;13.60;6.60;;;;;;;0.74;42.46;102282.33;129628;1274;108309;-71
2022/03/11 10:09:46;;;;;;;10.10;5.30;;;;;;;0.78;42.11;102276.79;129671;1274;108812;-71
2022/03/11 10:12:53;;;;;;;11.50;5.60;;;;;;;0.86;41.97;102284.46;129617;1274;106754;-71
2022/03/11 10:16:16;;;;;;;16.00;8.10;;;;;;;0.94;41.94;102278.48;129655;1274;108626;-71
2022/03/11 10:19:22;;;;;;;12.70;6.60;;;;;;;1.00;42.03;102276.37;129661;1274;108827;-69
2022/03/11 10:22:29;;;;;;;24.80;9.50;;;;;;;1.08;41.24;102271.27;129563;1274;108717;-71
2022/03/11 10:25:34;;;;;;;12.00;5.60;;;;;;;1.12;42.10;102264.83;129606;1276;108794;-70
2022/03/11 10:28:40;;;;;;;8.60;4.70;;;;;;;1.19;41.13;102266.92;129508;1276;108817;-70
2022/03/11 10:31:47;;;;;;;9.30;4.90;;;;;;;1.24;40.81;102262.06;129701;1276;108854;-70
2022/03/11 10:34:53;;;;;;;18.20;7.70;;;;;;;1.29;41.19;102260.16;129467;1276;109879;-70
2022/03/11 10:38:01;;;;;;;22.40;9.00;;;;;;;1.35;40.70;102257.51;129630;1274;108877;-70
2022/03/11 10:41:08;;;;;;;14.20;6.50;;;;;;;1.42;40.93;102258.38;129628;1274;108900;-70
2022/03/11 10:44:13;;;;;;;10.20;5.40;;;;;;;1.48;40.04;102261.73;129584;1274;108943;-76
2022/03/11 10:47:25;;;;;;;8.60;4.80;;;;;;;1.51;39.53;102259.86;129734;1274;108564;-73
2022/03/11 10:50:38;;;;;;;7.70;4.20;;;;;;;1.58;40.06;102253.69;129928;1274;108644;-70
2022/03/11 10:53:43;;;;;;;8.10;4.20;;;;;;;1.63;40.50;102248.65;129322;1276;108500;-72
2022/03/11 10:56:49;;;;;;;8.30;4.00;;;;;;;1.69;40.25;102248.47;129246;1276;107864;-71
2022/03/11 10:59:54;;;;;;;8.20;4.30;;;;;;;1.73;40.17;102247.11;129488;1276;109700;-72
2022/03/11 11:03:02;;;;;;;9.30;4.80;;;;;;;1.77;39.86;102246.98;129464;1276;107689;-72
2022/03/11 11:06:08;;;;;;;6.90;4.20;;;;;;;1.78;39.90;102240.27;129508;1276;108726;-74
2022/03/11 11:09:17;;;;;;;9.50;4.80;;;;;;;1.83;39.79;102241.01;129456;1276;107581;-74
2022/03/11 11:12:22;;;;;;;10.90;4.70;;;;;;;1.87;39.59;102244.55;129543;1274;108995;-72
2022/03/11 11:15:28;;;;;;;7.30;4.20;;;;;;;1.90;39.31;102241.31;129705;1274;108806;-72
2022/03/11 11:18:36;;;;;;;7.30;3.90;;;;;;;1.91;38.92;102240.58;129481;1274;108967;-72
2022/03/11 11:21:44;;;;;;;7.80;4.50;;;;;;;1.94;39.51;102237.32;129836;1274;108802;-71
2022/03/11 11:24:53;;;;;;;25.30;13.60;;;;;;;1.99;39.20;102238.06;129640;1274;108701;-71
2022/03/11 11:28:04;;;;;;;14.40;7.40;;;;;;;2.00;38.85;102235.38;129476;1275;108902;-72
2022/03/11 11:31:10;;;;;;;12.50;7.30;;;;;;;2.02;39.32;102230.95;129682;1274;109196;-71
2022/03/11 11:34:31;;;;;;;12.40;6.60;;;;;;;2.05;38.90;102229.59;129689;1274;107792;-71
2022/03/11 11:37:40;;;;;;;7.50;4.00;;;;;;;2.11;38.42;102226.78;129575;1274;109064;-72
2022/03/11 11:40:47;;;;;;;7.40;4.20;;;;;;;2.14;38.19;102226.14;129501;1274;108666;-70
2022/03/11 11:43:59;;;;;;;8.40;4.20;;;;;;;2.20;38.85;102226.33;129567;1274;107867;-73
2022/03/11 11:47:16;;;;;;;7.80;4.80;;;;;;;2.23;39.47;102221.83;129469;1274;108754;-71
2022/03/11 11:50:24;;;;;;;12.20;5.30;;;;;;;2.29;37.84;102220.37;129476;1274;108801;-72
2022/03/11 11:53:40;;;;;;;12.30;5.60;;;;;;;2.31;37.77;102221.20;129506;1274;108587;-70
2022/03/11 11:56:55;;;;;;;14.90;5.10;;;;;;;2.33;38.67;102217.61;129481;1274;106751;-71
2022/03/11 12:00:05;;;;;;;12.20;5.80;;;;;;;2.36;38.51;102214.34;129624;1275;107710;-71
2022/03/11 12:03:18;;;;;;;13.10;5.80;;;;;;;2.39;38.80;102208.27;129428;1274;110232;-71
2022/03/11 12:06:55;;;;;;;11.10;4.70;;;;;;;2.44;38.45;102201.46;129721;1274;108944;-72
2022/03/11 12:10:01;;;;;;;12.60;6.30;;;;;;;2.47;38.41;102196.77;129594;1274;107006;-72
2022/03/11 12:13:07;;;;;;;9.70;4.70;;;;;;;2.50;38.23;102196.30;129590;1274;108708;-73
2022/03/11 12:16:26;;;;;;;9.30;4.50;;;;;;;2.53;37.92;102188.48;129685;1274;108866;-71
2022/03/11 12:19:45;;;;;;;17.70;7.10;;;;;;;2.58;38.60;102183.02;129708;1274;108490;-73
2022/03/11 12:22:57;;;;;;;20.10;7.50;;;;;;;2.62;38.64;102177.29;129786;1274;108796;-69
2022/03/11 12:26:11;;;;;;;14.40;5.90;;;;;;;2.67;37.85;102176.74;129569;1274;108630;-71
2022/03/11 12:29:36;;;;;;;24.30;7.70;;;;;;;2.71;38.28;102171.52;129675;1274;106738;-71
2022/03/11 12:32:42;;;;;;;14.40;5.70;;;;;;;2.73;37.53;102170.39;129709;1274;108655;-70
2022/03/11 12:35:50;;;;;;;11.10;5.30;;;;;;;2.72;37.85;102164.27;129612;1274;108894;-70
2022/03/11 12:38:56;;;;;;;8.60;5.00;;;;;;;2.72;37.43;102161.27;129616;1274;108867;-71
2022/03/11 12:42:01;;;;;;;17.10;7.50;;;;;;;2.71;37.77;102162.89;129635;1274;107012;-69
2022/03/11 12:45:11;;;;;;;17.50;6.60;;;;;;;2.70;38.26;102152.89;129642;1274;109786;-75
2022/03/11 12:48:18;;;;;;;10.40;5.40;;;;;;;2.70;37.90;102146.04;129596;1274;108705;-70
2022/03/11 12:51:26;;;;;;;14.10;5.50;;;;;;;2.72;38.11;102139.50;129621;1274;107783;-69
2022/03/11 12:54:34;;;;;;;59.30;22.30;;;;;;;2.73;38.39;102137.52;129535;1274;108715;-70
2022/03/11 12:57:41;;;;;;;24.70;10.10;;;;;;;2.76;38.18;102138.46;129675;1274;108639;-71
2022/03/11 13:00:50;;;;;;;11.90;5.30;;;;;;;2.81;38.43;102138.30;129763;1274;108784;-71
2022/03/11 13:03:56;;;;;;;9.90;4.40;;;;;;;2.84;37.85;102129.73;129736;1274;108851;-72
2022/03/11 13:07:04;;;;;;;7.90;4.10;;;;;;;2.86;37.74;102126.67;129627;1274;108711;-70
2022/03/11 13:10:24;;;;;;;9.50;5.50;;;;;;;2.87;37.63;102124.70;129629;1274;108814;-72
2022/03/11 13:13:30;;;;;;;16.40;7.20;;;;;;;2.87;37.48;102123.98;129569;1274;108737;-70
2022/03/11 13:16:36;;;;;;;11.60;6.80;;;;;;;2.88;37.74;102118.17;129563;1274;108675;-71
2022/03/11 13:19:46;;;;;;;11.00;5.60;;;;;;;2.90;38.06;102114.56;129553;1274;108722;-71
2022/03/11 13:22:52;;;;;;;10.10;5.40;;;;;;;2.92;37.30;102113.77;129674;1275;108880;-71
2022/03/11 13:26:00;;;;;;;15.00;7.20;;;;;;;2.93;37.31;102111.11;129515;1274;108664;-71
2022/03/11 13:29:07;;;;;;;11.00;4.30;;;;;;;2.94;37.71;102108.79;129676;1274;108795;-71
2022/03/11 13:32:13;;;;;;;10.90;5.50;;;;;;;2.95;37.52;102104.02;129659;1274;106765;-70
2022/03/11 13:35:32;;;;;;;25.50;11.10;;;;;;;2.97;37.32;102100.25;129614;1274;107585;-71
2022/03/11 13:38:41;;;;;;;12.10;5.90;;;;;;;2.99;37.18;102095.61;129584;1274;108925;-71
2022/03/11 13:41:48;;;;;;;12.00;5.60;;;;;;;3.02;37.19;102094.24;129618;1274;108725;-72
2022/03/11 13:45:07;;;;;;;49.00;20.70;;;;;;;3.05;37.00;102099.95;129617;1274;108613;-70
2022/03/11 13:48:16;;;;;;;29.70;13.00;;;;;;;3.05;37.45;102094.86;129634;1274;108924;-71
2022/03/11 13:51:22;;;;;;;10.80;5.90;;;;;;;3.06;37.56;102086.70;129652;1274;108736;-71
2022/03/11 13:54:34;;;;;;;18.30;7.80;;;;;;;3.07;37.40;102092.30;129558;1274;108897;-71
2022/03/11 13:57:39;;;;;;;10.80;5.20;;;;;;;3.06;37.37;102087.93;129669;1274;106791;-71
2022/03/11 14:00:45;;;;;;;18.20;8.90;;;;;;;3.04;37.05;102083.27;129532;1274;108850;-71